Stanley, Stanley Airport (SFAL)

NameStanley Airport
CityStanley
CountryFalkland Islands (Malvinas)
ICAOSFAL
IATAPSY
Altitude23 m
CoordinatesGoogle Map
Live Air TrafficLiveATC.net
METARSFAL 241550Z 30016KT 9999 FEW020 08/05 Q1019
2019-04-24 15:50:00 Wind: West-Northwest (300°) 8.23 m/s - Visibility: > 10000 m - Temperature: 8 °C - Dew point: 5 °C - Humidity: 81.6% - Pressure: 1019 hPa

Sorry, no flights used the airport in this database.